Time;durP1;ratioP1;P1;durP2;ratioP2;P2;SDS_P1;SDS_P2;PMS_P1;PMS_P2;Temp;Humidity;BMP_temperature;BMP_pressure;BME280_temperature;BME280_humidity;BME280_pressure;Samples;Min_cycle;Max_cycle;Signal;HPM_P1;HPM_P2
2021/03/18 00:00:37;;;;;;;14.90;7.63;;;4.90;99.90;;;;;;5083749;28;20902;-58
2021/03/18 00:03:03;;;;;;;13.68;8.05;;;2.60;99.90;;;;;;5091276;28;20457;-58
2021/03/18 00:05:29;;;;;;;12.45;7.45;;;2.50;99.90;;;;;;5079742;28;20919;-58
2021/03/18 00:07:54;;;;;;;14.23;7.03;;;2.50;99.90;;;;;;5082213;28;20390;-57
2021/03/18 00:10:20;;;;;;;10.43;7.00;;;2.50;99.90;;;;;;5090914;28;20374;-58
2021/03/18 00:12:46;;;;;;;11.85;7.05;;;2.50;99.90;;;;;;5085816;28;20728;-58
2021/03/18 00:15:12;;;;;;;11.60;6.78;;;2.50;99.90;;;;;;5090602;28;20386;-59
2021/03/18 00:17:38;;;;;;;15.10;6.50;;;2.50;99.90;;;;;;5092182;28;20382;-59
2021/03/18 00:20:09;;;;;;;13.32;6.70;;;4.50;99.90;;;;;;5088844;28;20398;-58
2021/03/18 00:22:39;;;;;;;11.75;5.47;;;2.50;99.90;;;;;;5090255;28;20397;-59
2021/03/18 00:25:06;;;;;;;11.07;5.80;;;2.50;99.90;;;;;;5080993;28;20400;-58
2021/03/18 00:27:32;;;;;;;9.65;5.85;;;2.40;99.90;;;;;;5088997;28;20505;-59
2021/03/18 00:29:57;;;;;;;10.23;5.90;;;2.40;99.90;;;;;;5086850;28;20500;-58
2021/03/18 00:32:23;;;;;;;13.77;6.50;;;2.40;99.90;;;;;;5090557;28;20932;-58
2021/03/18 00:34:48;;;;;;;10.93;6.30;;;2.40;99.90;;;;;;5082579;28;20383;-59
2021/03/18 00:37:14;;;;;;;9.52;5.70;;;2.40;99.90;;;;;;5083531;28;21325;-58
2021/03/18 00:39:41;;;;;;;10.37;6.10;;;2.40;99.90;;;;;;5088759;28;20875;-58
2021/03/18 00:42:06;;;;;;;10.63;6.05;;;2.40;99.90;;;;;;5075907;28;20426;-59
2021/03/18 00:44:32;;;;;;;10.70;6.10;;;2.40;99.90;;;;;;5089433;28;20414;-58
2021/03/18 00:46:57;;;;;;;11.50;6.60;;;2.50;99.90;;;;;;5074870;28;20402;-57
2021/03/18 00:49:23;;;;;;;10.50;5.80;;;2.50;99.90;;;;;;5088670;28;20409;-58
2021/03/18 00:51:48;;;;;;;9.90;5.00;;;2.50;99.90;;;;;;5090830;28;20378;-58
2021/03/18 00:54:14;;;;;;;9.63;5.90;;;2.50;99.90;;;;;;5076490;28;20504;-58
2021/03/18 00:56:40;;;;;;;10.30;6.00;;;2.50;99.90;;;;;;5080808;28;20398;-58
2021/03/18 00:59:05;;;;;;;10.90;5.40;;;2.60;99.90;;;;;;5089654;28;20390;-58
2021/03/18 01:01:31;;;;;;;11.82;6.25;;;2.60;99.90;;;;;;5080844;28;20443;-58
2021/03/18 01:03:57;;;;;;;10.50;6.20;;;2.60;99.90;;;;;;5085181;28;20388;-57
2021/03/18 01:06:25;;;;;;;11.63;5.78;;;2.60;99.90;;;;;;5088572;28;20426;-58
2021/03/18 01:08:52;;;;;;;11.02;5.70;;;2.50;99.90;;;;;;5090414;28;20433;-57
2021/03/18 01:11:24;;;;;;;11.57;5.75;;;2.50;99.90;;;;;;5086973;28;20398;-58
2021/03/18 01:13:57;;;;;;;11.93;5.95;;;2.40;99.90;;;;;;5090148;28;20731;-58
2021/03/18 01:16:33;;;;;;;12.52;5.88;;;2.40;99.90;;;;;;5090332;28;20414;-58
2021/03/18 01:19:01;;;;;;;10.57;5.90;;;2.60;99.90;;;;;;5088904;28;20394;-57
2021/03/18 01:21:31;;;;;;;10.60;5.90;;;2.40;99.90;;;;;;5089153;28;20386;-58
2021/03/18 01:23:58;;;;;;;10.60;5.53;;;2.40;99.90;;;;;;5088890;28;20845;-57
2021/03/18 01:26:24;;;;;;;9.40;5.22;;;2.40;99.90;;;;;;5088781;28;20497;-58
2021/03/18 01:28:49;;;;;;;14.13;5.30;;;2.40;99.90;;;;;;5089756;28;20833;-59
2021/03/18 01:31:15;;;;;;;10.70;5.43;;;2.40;99.90;;;;;;5085821;28;20382;-58
2021/03/18 01:33:41;;;;;;;8.43;4.90;;;2.40;99.90;;;;;;5089132;28;20751;-58
2021/03/18 01:36:11;;;;;;;11.73;5.45;;;2.40;99.90;;;;;;5088450;28;20822;-59
2021/03/18 01:38:37;;;;;;;9.25;5.10;;;2.40;99.90;;;;;;5077782;28;20853;-59
2021/03/18 01:41:03;;;;;;;13.85;6.25;;;2.40;99.90;;;;;;5081372;28;20451;-58
2021/03/18 01:43:29;;;;;;;10.57;5.70;;;2.40;99.90;;;;;;5089900;28;20466;-58
2021/03/18 01:45:55;;;;;;;10.48;5.25;;;2.40;99.90;;;;;;5076538;28;20497;-58
2021/03/18 01:48:22;;;;;;;11.07;4.97;;;2.40;99.90;;;;;;5088621;28;20928;-58
2021/03/18 01:50:48;;;;;;;8.43;4.90;;;2.40;99.90;;;;;;5088495;28;20405;-59
2021/03/18 01:53:17;;;;;;;13.95;5.80;;;4.60;99.90;;;;;;5088954;28;20378;-59
2021/03/18 01:55:44;;;;;;;9.57;5.70;;;2.20;99.90;;;;;;5089072;28;20394;-58
2021/03/18 01:58:11;;;;;;;9.18;5.10;;;2.30;99.90;;;;;;5088027;28;20425;-59
2021/03/18 02:00:39;;;;;;;11.18;5.82;;;3.60;99.90;;;;;;5081151;28;20407;-60
2021/03/18 02:03:05;;;;;;;10.32;5.13;;;2.30;99.90;;;;;;5081157;28;20473;-58
2021/03/18 02:05:32;;;;;;;8.67;5.50;;;4.20;99.90;;;;;;5089655;28;20401;-59
2021/03/18 02:07:58;;;;;;;11.80;5.55;;;2.20;99.90;;;;;;5084971;28;20438;-57
2021/03/18 02:10:28;;;;;;;11.45;5.80;;;2.30;99.90;;;;;;5081586;28;20389;-59
2021/03/18 02:12:55;;;;;;;10.10;5.80;;;2.40;99.90;;;;;;5089678;28;20425;-59
2021/03/18 02:15:33;;;;;;;9.68;5.50;;;2.40;99.90;;;;;;5088445;28;20410;-59
2021/03/18 02:18:09;;;;;;;10.38;6.63;;;2.50;99.90;;;;;;5088081;28;20402;-57
2021/03/18 02:20:53;;;;;;;11.60;5.90;;;2.50;99.90;;;;;;5088253;28;20398;-58
2021/03/18 02:23:40;;;;;;;12.93;5.93;;;2.50;99.90;;;;;;5085121;28;20423;-59
2021/03/18 02:26:33;;;;;;;10.43;5.43;;;2.50;99.90;;;;;;5085511;28;20471;-59
2021/03/18 02:29:36;;;;;;;8.60;5.70;;;2.40;99.90;;;;;;5068629;28;20427;-57
2021/03/18 02:32:35;;;;;;;12.75;4.90;;;2.40;99.90;;;;;;5083986;28;20850;-58
2021/03/18 02:35:21;;;;;;;13.68;6.15;;;2.40;99.90;;;;;;5068815;28;20398;-58
2021/03/18 02:38:11;;;;;;;9.20;4.97;;;2.40;99.90;;;;;;5085860;28;20437;-58
2021/03/18 02:40:46;;;;;;;9.57;5.50;;;2.40;99.90;;;;;;5071075;28;20382;-59
2021/03/18 02:43:15;;;;;;;10.32;5.60;;;2.40;99.90;;;;;;5087334;28;20378;-58
2021/03/18 02:45:48;;;;;;;11.68;5.00;;;2.50;99.90;;;;;;5091306;28;20388;-59
2021/03/18 02:48:28;;;;;;;8.80;5.30;;;2.50;99.90;;;;;;5069161;28;20968;-58
2021/03/18 02:50:55;;;;;;;9.48;4.80;;;2.60;99.90;;;;;;5088903;28;20889;-58
2021/03/18 02:53:24;;;;;;;11.20;5.25;;;2.60;99.90;;;;;;5090278;28;20422;-58
2021/03/18 02:55:51;;;;;;;9.85;5.40;;;2.60;99.90;;;;;;5091763;28;20487;-58
2021/03/18 02:58:22;;;;;;;10.20;5.25;;;2.50;99.90;;;;;;5088583;28;20399;-58
2021/03/18 03:00:50;;;;;;;11.20;5.40;;;2.60;99.90;;;;;;5072652;28;20442;-59
2021/03/18 03:03:18;;;;;;;8.90;4.80;;;2.60;99.90;;;;;;5079354;28;20966;-58
2021/03/18 03:05:49;;;;;;;9.73;5.25;;;2.60;99.90;;;;;;5089811;28;20406;-59
2021/03/18 03:08:16;;;;;;;12.10;5.20;;;2.60;99.90;;;;;;5068945;28;20415;-59
2021/03/18 03:10:44;;;;;;;10.80;5.50;;;2.50;99.90;;;;;;5089526;28;20378;-59
2021/03/18 03:13:12;;;;;;;10.35;5.47;;;2.50;99.90;;;;;;5075187;28;20404;-59
2021/03/18 03:15:39;;;;;;;12.57;6.05;;;2.50;99.90;;;;;;5088547;28;20398;-58
2021/03/18 03:18:08;;;;;;;10.13;6.03;;;2.50;99.90;;;;;;5088609;28;20511;-58
2021/03/18 03:20:35;;;;;;;10.93;5.43;;;2.50;99.90;;;;;;5092300;28;20378;-58
2021/03/18 03:23:04;;;;;;;10.27;5.22;;;2.50;99.90;;;;;;5078548;28;20383;-57
2021/03/18 03:25:30;;;;;;;10.32;5.50;;;2.40;99.90;;;;;;5091613;28;20402;-58
2021/03/18 03:27:56;;;;;;;14.25;5.82;;;2.30;99.90;;;;;;5072088;28;20412;-57
2021/03/18 03:30:23;;;;;;;12.90;5.70;;;2.40;99.90;;;;;;5086942;28;20386;-58
2021/03/18 03:32:49;;;;;;;11.80;6.30;;;2.40;99.90;;;;;;5091606;28;20394;-58
2021/03/18 03:35:16;;;;;;;11.60;5.90;;;2.30;99.90;;;;;;5090196;28;20864;-59
2021/03/18 03:37:43;;;;;;;10.70;5.90;;;2.20;99.90;;;;;;5092503;28;20439;-59
2021/03/18 03:40:11;;;;;;;9.05;5.38;;;2.20;99.90;;;;;;5088927;28;20817;-58
2021/03/18 03:42:37;;;;;;;11.40;5.80;;;2.20;99.90;;;;;;5085004;28;20485;-59
2021/03/18 03:45:06;;;;;;;10.60;6.50;;;2.20;99.90;;;;;;5090728;28;20927;-58
2021/03/18 03:47:31;;;;;;;8.17;5.23;;;2.20;99.90;;;;;;5089627;28;20903;-59
2021/03/18 03:49:57;;;;;;;10.63;5.40;;;2.20;99.90;;;;;;5088312;28;20466;-58
2021/03/18 03:52:34;;;;;;;12.38;5.60;;;2.20;99.90;;;;;;5091963;28;20840;-59
2021/03/18 03:55:12;;;;;;;8.27;5.28;;;2.20;99.90;;;;;;5088387;28;20950;-57
2021/03/18 03:57:46;;;;;;;10.63;5.63;;;2.10;99.90;;;;;;5087407;28;20455;-58
2021/03/18 04:00:12;;;;;;;10.40;5.45;;;2.20;99.90;;;;;;5091010;28;20398;-58
2021/03/18 04:02:38;;;;;;;12.75;6.30;;;2.10;99.90;;;;;;5090462;28;20416;-57
2021/03/18 04:05:06;;;;;;;11.05;6.05;;;2.00;99.90;;;;;;5090614;28;20398;-57
2021/03/18 04:07:36;;;;;;;10.95;6.43;;;2.10;99.90;;;;;;5090631;28;20438;-57
2021/03/18 04:10:03;;;;;;;10.85;6.20;;;2.10;99.90;;;;;;5090774;28;20465;-57
2021/03/18 04:12:34;;;;;;;14.70;6.40;;;2.10;99.90;;;;;;5089061;28;20420;-57
2021/03/18 04:15:05;;;;;;;14.52;6.53;;;2.20;99.90;;;;;;5091052;28;20374;-56
2021/03/18 04:17:32;;;;;;;12.38;6.30;;;2.20;99.90;;;;;;5091372;28;20497;-58
2021/03/18 04:20:00;;;;;;;12.00;6.70;;;2.30;99.90;;;;;;5087845;28;20477;-57
2021/03/18 04:22:31;;;;;;;13.13;5.43;;;2.40;99.90;;;;;;5081197;28;20391;-58
2021/03/18 04:24:58;;;;;;;12.90;6.40;;;2.40;99.90;;;;;;5087004;28;20382;-57
2021/03/18 04:27:24;;;;;;;10.93;6.00;;;2.40;99.90;;;;;;5079060;28;20416;-59
2021/03/18 04:29:51;;;;;;;11.93;5.65;;;2.40;99.90;;;;;;5089779;28;20409;-57
2021/03/18 04:32:17;;;;;;;9.52;5.80;;;2.40;99.90;;;;;;5089913;28;20922;-58
2021/03/18 04:34:44;;;;;;;12.23;6.18;;;2.30;99.90;;;;;;5090292;28;20915;-57
2021/03/18 04:37:10;;;;;;;12.50;6.30;;;2.40;99.90;;;;;;5090080;28;20882;-59
2021/03/18 04:39:38;;;;;;;12.88;7.30;;;2.30;99.90;;;;;;5089241;28;20847;-60
2021/03/18 04:42:06;;;;;;;16.23;6.72;;;2.30;99.90;;;;;;5075959;28;20398;-59
2021/03/18 04:44:32;;;;;;;11.60;6.40;;;2.40;99.90;;;;;;5090761;28;20373;-59
2021/03/18 04:47:00;;;;;;;11.30;6.07;;;2.40;99.90;;;;;;5089427;28;20406;-58
2021/03/18 04:49:27;;;;;;;10.80;6.30;;;3.60;99.90;;;;;;5089850;28;20405;-59
2021/03/18 04:51:53;;;;;;;13.70;6.10;;;2.30;99.90;;;;;;5089581;28;20416;-60
2021/03/18 04:54:19;;;;;;;13.73;6.90;;;2.30;99.90;;;;;;5090084;28;20370;-59
2021/03/18 04:56:45;;;;;;;15.60;7.10;;;2.20;99.90;;;;;;5090119;28;20393;-58
2021/03/18 04:59:16;;;;;;;10.75;6.70;;;2.20;99.90;;;;;;5089331;28;20405;-59
2021/03/18 05:01:50;;;;;;;12.00;6.50;;;2.20;99.90;;;;;;5090529;28;20381;-59
2021/03/18 05:04:18;;;;;;;10.43;6.28;;;2.20;99.90;;;;;;5088627;28;20476;-59
2021/03/18 05:06:52;;;;;;;12.13;7.45;;;2.30;99.90;;;;;;5088374;28;20413;-58
2021/03/18 05:09:20;;;;;;;13.53;6.40;;;2.30;99.90;;;;;;5084684;28;20402;-59
2021/03/18 05:11:46;;;;;;;12.68;6.57;;;2.30;99.90;;;;;;5090156;28;20471;-59
2021/03/18 05:14:13;;;;;;;13.27;6.43;;;2.30;99.90;;;;;;5088389;28;20386;-60
2021/03/18 05:16:39;;;;;;;12.10;6.80;;;2.30;99.90;;;;;;5064139;28;20895;-59
2021/03/18 05:19:09;;;;;;;13.40;6.65;;;2.70;99.90;;;;;;5085983;28;20755;-58
2021/03/18 05:21:36;;;;;;;12.27;6.28;;;2.20;99.90;;;;;;5088499;28;20402;-58
2021/03/18 05:24:03;;;;;;;15.13;7.53;;;2.20;99.90;;;;;;5081682;28;20399;-57
2021/03/18 05:26:29;;;;;;;11.45;6.10;;;2.20;99.90;;;;;;5088089;28;20956;-59
2021/03/18 05:28:54;;;;;;;12.20;6.40;;;2.20;99.90;;;;;;5089368;28;20466;-58
2021/03/18 05:31:22;;;;;;;12.48;6.30;;;2.20;99.90;;;;;;5080720;28;20372;-59
2021/03/18 05:33:48;;;;;;;12.05;6.70;;;2.20;99.90;;;;;;5082579;28;20463;-59
2021/03/18 05:36:14;;;;;;;12.65;6.90;;;2.20;99.90;;;;;;5067916;28;20463;-59
2021/03/18 05:38:40;;;;;;;15.23;7.07;;;2.20;99.90;;;;;;5082533;28;20848;-59
2021/03/18 05:41:05;;;;;;;12.60;6.30;;;2.20;99.90;;;;;;5083168;28;20416;-58
2021/03/18 05:43:32;;;;;;;13.13;6.45;;;2.30;99.90;;;;;;5079670;28;20372;-59
2021/03/18 05:45:57;;;;;;;15.98;7.07;;;2.40;99.90;;;;;;5085543;28;20481;-58
2021/03/18 05:48:25;;;;;;;13.27;7.30;;;2.50;99.90;;;;;;5082285;28;20464;-58
2021/03/18 05:50:51;;;;;;;11.70;6.45;;;3.80;99.90;;;;;;5085242;28;20962;-59
2021/03/18 05:53:18;;;;;;;10.43;6.55;;;2.40;99.90;;;;;;5079290;28;20386;-58
2021/03/18 05:55:45;;;;;;;13.25;7.30;;;2.40;99.90;;;;;;5080203;28;20406;-59
2021/03/18 05:58:12;;;;;;;12.55;7.30;;;4.80;99.90;;;;;;5087086;28;20405;-59
2021/03/18 06:00:38;;;;;;;14.10;7.07;;;2.50;99.90;;;;;;5082920;28;20544;-59
2021/03/18 06:03:04;;;;;;;11.45;6.45;;;2.80;99.90;;;;;;5084762;28;20923;-59
2021/03/18 06:05:30;;;;;;;10.98;6.50;;;2.70;99.90;;;;;;5077416;28;20493;-59
2021/03/18 06:07:56;;;;;;;13.57;7.00;;;2.60;99.90;;;;;;5084770;28;20498;-59
2021/03/18 06:10:23;;;;;;;12.05;6.65;;;2.70;99.90;;;;;;5083429;28;20376;-59
2021/03/18 06:12:51;;;;;;;11.77;6.10;;;2.60;99.90;;;;;;5087028;28;20438;-59
2021/03/18 06:15:18;;;;;;;12.40;6.68;;;2.60;99.90;;;;;;5082314;28;20406;-59
2021/03/18 06:17:44;;;;;;;12.55;6.30;;;3.50;99.90;;;;;;5084508;28;20455;-59
2021/03/18 06:20:13;;;;;;;12.45;6.28;;;2.80;99.90;;;;;;5085820;28;20464;-59
2021/03/18 06:22:43;;;;;;;12.15;6.03;;;2.90;99.90;;;;;;5090552;28;20401;-59
2021/03/18 06:25:26;;;;;;;11.32;5.40;;;3.00;99.90;;;;;;5092979;28;20394;-59
2021/03/18 06:28:09;;;;;;;10.35;5.80;;;3.10;99.90;;;;;;5092507;28;20451;-58
2021/03/18 06:30:36;;;;;;;11.68;6.15;;;3.10;99.90;;;;;;5093104;28;20389;-59
2021/03/18 06:33:20;;;;;;;11.98;6.13;;;3.10;99.90;;;;;;5091478;28;20479;-57
2021/03/18 06:35:46;;;;;;;11.82;6.20;;;3.20;99.90;;;;;;5093903;28;20456;-59
2021/03/18 06:38:12;;;;;;;12.50;6.30;;;3.20;99.90;;;;;;5091542;28;20386;-59
2021/03/18 06:40:45;;;;;;;21.70;7.10;;;3.20;99.90;;;;;;5084232;28;20382;-59
2021/03/18 06:43:12;;;;;;;14.43;6.47;;;3.20;99.90;;;;;;5092581;28;20409;-59
2021/03/18 06:45:41;;;;;;;14.15;7.07;;;3.30;99.90;;;;;;5091989;28;20459;-59
2021/03/18 06:48:12;;;;;;;15.63;6.82;;;3.40;99.90;;;;;;5074433;28;20410;-58
2021/03/18 06:50:43;;;;;;;15.27;6.60;;;3.40;99.90;;;;;;5093500;28;21025;-60
2021/03/18 06:53:22;;;;;;;12.23;6.50;;;3.60;99.90;;;;;;5090724;28;20854;-58
2021/03/18 06:55:48;;;;;;;15.13;6.82;;;4.30;99.90;;;;;;5080341;28;20407;-59
2021/03/18 06:58:21;;;;;;;10.70;6.57;;;3.50;99.90;;;;;;5089451;28;20405;-59
2021/03/18 07:00:55;;;;;;;12.45;6.28;;;3.60;99.90;;;;;;5072692;28;20392;-59
2021/03/18 07:03:32;;;;;;;9.60;6.07;;;3.70;99.90;;;;;;5078015;28;20485;-59
2021/03/18 07:05:59;;;;;;;15.95;7.07;;;3.80;99.90;;;;;;5092379;28;20462;-59
2021/03/18 07:08:29;;;;;;;10.13;6.00;;;3.90;99.90;;;;;;5092232;28;20854;-60
2021/03/18 07:10:56;;;;;;;15.73;6.90;;;4.00;99.90;;;;;;5092296;28;20432;-59
2021/03/18 07:13:25;;;;;;;12.25;5.90;;;4.00;99.90;;;;;;5092147;28;20446;-59
2021/03/18 07:15:53;;;;;;;9.85;5.30;;;4.80;99.90;;;;;;5092559;28;20704;-60
2021/03/18 07:18:19;;;;;;;10.88;5.60;;;5.70;99.90;;;;;;5091829;28;20863;-59
2021/03/18 07:21:10;;;;;;;9.88;5.80;;;5.90;99.90;;;;;;5092597;28;20378;-60
2021/03/18 07:23:44;;;;;;;13.15;5.82;;;6.10;99.90;;;;;;5092724;28;20400;-60
2021/03/18 07:26:11;;;;;;;9.20;5.65;;;7.10;99.90;;;;;;5091699;28;20432;-58
2021/03/18 07:28:37;;;;;;;10.77;6.18;;;7.00;99.90;;;;;;5088956;28;20391;-59
2021/03/18 07:31:04;;;;;;;11.32;5.82;;;7.30;99.90;;;;;;5071127;28;20734;-57
2021/03/18 07:33:32;;;;;;;14.48;5.43;;;6.30;99.90;;;;;;5072027;28;20480;-59
2021/03/18 07:35:59;;;;;;;12.00;6.25;;;6.80;99.90;;;;;;5071899;28;20502;-60
2021/03/18 07:38:28;;;;;;;13.65;6.35;;;6.40;99.90;;;;;;5071167;28;20392;-59
2021/03/18 07:40:54;;;;;;;10.00;5.20;;;7.00;99.90;;;;;;5071574;28;20371;-60
2021/03/18 07:43:20;;;;;;;11.55;6.10;;;8.80;99.90;;;;;;5071147;28;20376;-61
2021/03/18 07:45:46;;;;;;;11.90;5.47;;;8.60;99.90;;;;;;5071713;28;20434;-61
2021/03/18 07:48:13;;;;;;;8.80;5.32;;;9.70;99.90;;;;;;5071250;28;20380;-60
2021/03/18 07:50:41;;;;;;;9.93;4.80;;;10.20;99.90;;;;;;5071594;28;20372;-61
2021/03/18 07:53:13;;;;;;;8.68;4.70;;;10.90;99.90;;;;;;5071335;28;20420;-60
2021/03/18 07:55:39;;;;;;;8.02;4.95;;;11.30;99.80;;;;;;5071643;28;20478;-61
2021/03/18 07:58:05;;;;;;;8.68;4.70;;;11.60;99.30;;;;;;5071191;28;20395;-58
2021/03/18 08:00:32;;;;;;;9.63;4.40;;;11.20;97.80;;;;;;5071839;28;20444;-61
2021/03/18 08:03:19;;;;;;;9.10;5.10;;;11.10;97.00;;;;;;5076292;28;20386;-61
2021/03/18 08:05:45;;;;;;;8.77;4.15;;;12.00;96.00;;;;;;5091518;28;20860;-61
2021/03/18 08:08:30;;;;;;;10.30;4.13;;;12.30;94.70;;;;;;5090027;28;20395;-61
2021/03/18 08:11:06;;;;;;;9.63;3.95;;;13.00;91.80;;;;;;5091348;28;20935;-61
2021/03/18 08:13:37;;;;;;;8.50;3.80;;;13.00;84.20;;;;;;5091514;28;20388;-61
2021/03/18 08:16:06;;;;;;;7.70;4.50;;;12.80;89.90;;;;;;5091014;28;20386;-59
2021/03/18 08:18:34;;;;;;;9.02;4.28;;;13.60;85.90;;;;;;5091421;28;20374;-61
2021/03/18 08:21:02;;;;;;;8.50;4.63;;;14.00;84.60;;;;;;5073205;28;20871;-61
2021/03/18 08:23:28;;;;;;;8.70;4.28;;;14.50;83.90;;;;;;5090783;28;20378;-60
2021/03/18 08:26:01;;;;;;;7.97;4.50;;;14.10;81.50;;;;;;5091015;28;20787;-60
2021/03/18 08:28:43;;;;;;;10.57;5.32;;;12.40;86.60;;;;;;5090567;28;20408;-60
2021/03/18 08:31:16;;;;;;;10.65;4.78;;;11.30;90.70;;;;;;5090589;28;20740;-60
2021/03/18 08:33:47;;;;;;;11.30;4.87;;;10.70;93.50;;;;;;5091135;28;20381;-60
2021/03/18 08:36:28;;;;;;;12.17;5.13;;;10.40;93.20;;;;;;5090225;28;20401;-60
2021/03/18 08:39:00;;;;;;;9.93;4.63;;;9.80;95.40;;;;;;5091002;28;20385;-60
2021/03/18 08:41:36;;;;;;;10.60;4.97;;;9.50;96.20;;;;;;5089667;28;20414;-60
2021/03/18 08:44:25;;;;;;;8.30;4.10;;;9.40;97.20;;;;;;5090183;28;20378;-59
2021/03/18 08:46:57;;;;;;;10.88;4.82;;;9.30;97.00;;;;;;5088504;28;20741;-60
2021/03/18 08:49:25;;;;;;;10.23;4.60;;;10.10;96.10;;;;;;5090151;28;20961;-60
2021/03/18 08:51:52;;;;;;;10.80;5.10;;;11.70;95.90;;;;;;5090582;28;20863;-61
2021/03/18 08:54:36;;;;;;;10.53;5.57;;;12.70;93.30;;;;;;5090074;28;20702;-60
2021/03/18 08:57:06;;;;;;;9.80;5.50;;;13.60;92.50;;;;;;5089930;28;20868;-58
2021/03/18 08:59:34;;;;;;;12.93;5.30;;;13.20;91.30;;;;;;5090929;28;20555;-60
2021/03/18 09:02:05;;;;;;;10.43;6.05;;;11.50;91.90;;;;;;5090486;28;20443;-59
2021/03/18 09:04:40;;;;;;;10.52;5.90;;;10.00;95.60;;;;;;5072656;28;20391;-59
2021/03/18 09:07:27;;;;;;;16.88;6.90;;;9.40;98.70;;;;;;5069646;28;20907;-58
2021/03/18 09:10:21;;;;;;;11.17;6.10;;;8.40;99.90;;;;;;5070383;28;20400;-59
2021/03/18 09:12:50;;;;;;;11.65;5.60;;;7.90;99.90;;;;;;5067531;28;20383;-59
2021/03/18 09:15:33;;;;;;;11.23;6.03;;;7.60;99.90;;;;;;5069583;28;20379;-59
2021/03/18 09:18:16;;;;;;;11.88;6.10;;;7.50;99.90;;;;;;5070272;28;20446;-59
2021/03/18 09:20:45;;;;;;;10.70;5.67;;;7.30;99.90;;;;;;5070450;28;20857;-59
2021/03/18 09:23:10;;;;;;;11.60;5.80;;;7.50;99.90;;;;;;5069117;28;20383;-59
2021/03/18 09:25:37;;;;;;;13.73;5.93;;;9.40;99.90;;;;;;5070096;28;20391;-59
2021/03/18 09:28:03;;;;;;;11.90;5.73;;;11.20;99.30;;;;;;5069847;28;20415;-59
2021/03/18 09:30:32;;;;;;;10.15;5.80;;;12.40;95.80;;;;;;5069662;28;20372;-60
2021/03/18 09:32:58;;;;;;;12.45;5.88;;;12.90;95.10;;;;;;5069968;28;20432;-60
2021/03/18 09:35:26;;;;;;;10.88;5.82;;;13.80;93.20;;;;;;5069381;28;20391;-60
2021/03/18 09:37:52;;;;;;;11.35;5.47;;;15.20;85.70;;;;;;5069884;28;20388;-60
2021/03/18 09:40:18;;;;;;;9.70;6.15;;;15.10;85.00;;;;;;5069157;28;20376;-60
2021/03/18 09:42:45;;;;;;;9.05;5.43;;;16.00;79.60;;;;;;5070016;28;20376;-60
2021/03/18 09:45:18;;;;;;;9.90;5.60;;;16.10;76.80;;;;;;5069319;28;20422;-61
2021/03/18 09:47:49;;;;;;;10.07;5.05;;;16.50;73.90;;;;;;5069739;28;20400;-61
2021/03/18 09:50:15;;;;;;;9.83;5.63;;;16.90;66.80;;;;;;5068386;28;20430;-60
2021/03/18 09:52:41;;;;;;;10.00;5.47;;;15.90;67.30;;;;;;5069497;28;20379;-60
2021/03/18 09:55:11;;;;;;;9.50;5.05;;;15.50;69.80;;;;;;5068920;28;20435;-59
2021/03/18 09:57:37;;;;;;;10.73;5.57;;;15.00;75.40;;;;;;5069324;28;20929;-59
2021/03/18 10:00:04;;;;;;;8.65;4.93;;;15.00;72.70;;;;;;5069549;28;20393;-60
2021/03/18 10:02:30;;;;;;;8.40;5.10;;;15.10;72.50;;;;;;5069626;28;20379;-60
2021/03/18 10:04:56;;;;;;;10.73;5.15;;;15.20;69.20;;;;;;5089814;28;20384;-60
2021/03/18 10:07:32;;;;;;;9.23;4.72;;;15.10;73.00;;;;;;5088735;28;20480;-61
2021/03/18 10:09:58;;;;;;;11.10;5.03;;;16.40;65.00;;;;;;5089892;28;20397;-60
2021/03/18 10:12:26;;;;;;;10.10;5.20;;;16.30;60.50;;;;;;5088553;28;20393;-60
2021/03/18 10:15:04;;;;;;;8.95;5.25;;;16.80;59.90;;;;;;5089597;28;20378;-60
2021/03/18 10:17:35;;;;;;;10.95;5.20;;;16.00;65.40;;;;;;5089458;28;20382;-60
2021/03/18 10:20:10;;;;;;;9.52;5.32;;;16.50;63.20;;;;;;5089984;28;20424;-60
2021/03/18 10:22:39;;;;;;;9.50;5.30;;;16.70;60.40;;;;;;5071531;28;20759;-57
2021/03/18 10:25:10;;;;;;;10.65;5.80;;;14.80;61.40;;;;;;5089304;28;20409;-56
2021/03/18 10:27:51;;;;;;;9.85;5.60;;;13.10;66.10;;;;;;5089375;28;20413;-57
2021/03/18 10:30:19;;;;;;;10.05;5.30;;;13.00;69.70;;;;;;5088798;28;20415;-58
2021/03/18 10:33:06;;;;;;;9.63;5.63;;;13.50;64.90;;;;;;5089614;28;20473;-58
2021/03/18 10:35:38;;;;;;;12.75;5.00;;;13.00;66.50;;;;;;5089666;28;20427;-58
2021/03/18 10:38:05;;;;;;;10.30;4.95;;;12.50;68.20;;;;;;5089608;28;20427;-58
2021/03/18 10:40:39;;;;;;;10.60;5.00;;;10.80;70.50;;;;;;5089000;28;20400;-58
2021/03/18 10:43:18;;;;;;;12.10;5.22;;;9.80;77.80;;;;;;5089408;28;20370;-57
2021/03/18 10:45:44;;;;;;;12.38;5.20;;;9.40;86.60;;;;;;5089499;28;20433;-58
2021/03/18 10:48:10;;;;;;;11.85;5.45;;;9.40;88.00;;;;;;5086805;28;20823;-57
2021/03/18 10:50:37;;;;;;;9.45;6.03;;;9.40;88.30;;;;;;5087619;28;20398;-58
2021/03/18 10:53:06;;;;;;;9.45;4.75;;;9.70;87.40;;;;;;5071198;28;20393;-58
2021/03/18 10:55:38;;;;;;;8.25;4.50;;;9.60;86.90;;;;;;5088739;28;20397;-57
2021/03/18 10:58:09;;;;;;;9.10;4.30;;;9.50;80.80;;;;;;5087824;28;20413;-57
2021/03/18 11:00:40;;;;;;;9.52;4.25;;;9.10;82.50;;;;;;5087839;28;20394;-57
2021/03/18 11:03:09;;;;;;;10.05;4.72;;;8.90;83.30;;;;;;5082326;28;20906;-57
2021/03/18 11:05:43;;;;;;;11.95;4.80;;;8.70;87.30;;;;;;5078777;28;20739;-57
2021/03/18 11:08:11;;;;;;;9.95;4.95;;;8.80;86.60;;;;;;5091893;28;20508;-57
2021/03/18 11:10:40;;;;;;;10.98;4.22;;;8.80;88.30;;;;;;5091373;28;22519;-57
2021/03/18 11:13:12;;;;;;;9.93;4.95;;;8.50;89.20;;;;;;5092062;28;20395;-57
2021/03/18 11:15:55;;;;;;;9.73;4.47;;;8.80;86.40;;;;;;5090866;28;20397;-58
2021/03/18 11:18:47;;;;;;;9.32;4.60;;;9.10;85.20;;;;;;5091940;28;20382;-58
2021/03/18 11:21:22;;;;;;;10.15;4.45;;;9.50;84.10;;;;;;5087311;28;20394;-58
2021/03/18 11:23:50;;;;;;;7.80;4.13;;;9.20;78.80;;;;;;5092231;28;20752;-58
2021/03/18 11:26:23;;;;;;;7.80;3.95;;;9.40;80.80;;;;;;5073181;28;20952;-58
2021/03/18 11:29:13;;;;;;;9.88;4.10;;;9.40;82.90;;;;;;5092371;28;20394;-58
2021/03/18 11:31:54;;;;;;;10.35;4.20;;;9.20;82.90;;;;;;5092418;28;20447;-58
2021/03/18 11:34:33;;;;;;;8.90;4.53;;;9.30;83.10;;;;;;5091255;28;20370;-58
2021/03/18 11:37:12;;;;;;;9.25;5.13;;;9.50;82.00;;;;;;5092422;28;20913;-58
2021/03/18 11:39:39;;;;;;;8.05;4.10;;;9.50;84.80;;;;;;5092089;28;20889;-58
2021/03/18 11:42:05;;;;;;;9.50;4.50;;;9.90;81.60;;;;;;5092057;28;20574;-58
2021/03/18 11:44:32;;;;;;;9.37;4.30;;;10.10;80.60;;;;;;5091134;28;20382;-58
2021/03/18 11:47:02;;;;;;;10.68;5.65;;;9.90;80.30;;;;;;5091643;28;20420;-58
2021/03/18 11:49:28;;;;;;;9.63;4.65;;;10.10;80.60;;;;;;5091195;28;20393;-58
2021/03/18 11:51:54;;;;;;;8.45;3.90;;;10.20;77.60;;;;;;5092185;28;20398;-58
2021/03/18 11:54:20;;;;;;;8.15;4.32;;;10.00;77.40;;;;;;5091255;28;20828;-58
2021/03/18 11:56:46;;;;;;;8.87;4.60;;;9.90;78.50;;;;;;5073886;28;20394;-58
2021/03/18 11:59:12;;;;;;;9.90;4.70;;;9.60;81.40;;;;;;5091163;28;20390;-57
2021/03/18 12:01:38;;;;;;;9.77;5.28;;;9.30;82.20;;;;;;5091959;28;20378;-58
2021/03/18 12:04:05;;;;;;;8.83;4.40;;;9.10;90.50;;;;;;5077219;28;20376;-58
2021/03/18 12:06:30;;;;;;;9.17;4.53;;;8.20;96.30;;;;;;5052618;28;20533;-58
2021/03/18 12:08:57;;;;;;;9.50;4.13;;;7.30;99.90;;;;;;5070362;28;20423;-58
2021/03/18 12:11:23;;;;;;;10.70;4.30;;;6.90;99.90;;;;;;5070692;28;20384;-58
2021/03/18 12:13:49;;;;;;;8.23;4.50;;;7.20;99.90;;;;;;5071775;28;20386;-58
2021/03/18 12:16:14;;;;;;;7.83;4.03;;;7.30;99.90;;;;;;5070442;28;20383;-58
2021/03/18 12:18:40;;;;;;;7.10;3.30;;;6.90;99.90;;;;;;5071086;28;20686;-58
2021/03/18 12:21:07;;;;;;;11.00;4.67;;;6.80;99.90;;;;;;5071360;28;20394;-58
2021/03/18 12:23:33;;;;;;;9.93;3.90;;;6.90;99.90;;;;;;5070631;28;20380;-58
2021/03/18 12:25:59;;;;;;;12.82;5.60;;;6.60;99.90;;;;;;5071164;28;20410;-57
2021/03/18 12:28:24;;;;;;;16.77;8.75;;;6.50;99.90;;;;;;5070264;28;20845;-57
2021/03/18 12:30:51;;;;;;;13.15;7.43;;;6.90;99.90;;;;;;5070685;28;20397;-58
2021/03/18 12:33:20;;;;;;;11.90;5.30;;;7.20;99.90;;;;;;5069813;28;20867;-57
2021/03/18 12:35:50;;;;;;;12.35;6.00;;;7.30;99.90;;;;;;5071104;28;20388;-59
2021/03/18 12:38:17;;;;;;;9.88;4.97;;;7.10;99.90;;;;;;5070246;28;20404;-58
2021/03/18 12:40:42;;;;;;;11.23;5.33;;;7.20;99.90;;;;;;5070264;28;20396;-57
2021/03/18 12:43:09;;;;;;;9.13;4.50;;;7.50;99.90;;;;;;5070829;28;20380;-57
2021/03/18 12:45:35;;;;;;;14.13;6.40;;;7.50;99.90;;;;;;5070635;28;20368;-58
2021/03/18 12:48:03;;;;;;;12.45;5.75;;;7.60;99.90;;;;;;5070436;28;20399;-58
2021/03/18 12:50:29;;;;;;;9.57;5.35;;;7.00;99.90;;;;;;5070029;28;20376;-58
2021/03/18 12:52:55;;;;;;;12.30;6.93;;;6.40;99.90;;;;;;5070732;28;20419;-58
2021/03/18 12:55:23;;;;;;;11.27;6.37;;;5.80;99.90;;;;;;5070009;28;20471;-57
2021/03/18 12:57:49;;;;;;;11.95;6.10;;;5.70;99.90;;;;;;5070635;28;20433;-58
2021/03/18 13:00:18;;;;;;;11.70;6.05;;;6.20;99.90;;;;;;5051864;28;20511;-57